Time;durP1;ratioP1;P1;durP2;ratioP2;P2;SDS_P1;SDS_P2;PMS_P1;PMS_P2;Temp;Humidity;BMP_temperature;BMP_pressure;BME280_temperature;BME280_humidity;BME280_pressure;Samples;Min_cycle;Max_cycle;Signal;HPM_P1;HPM_P2
2022/11/24 00:01:08;;;;;;;5.23;1.77;;;4.00;99.90;;;;;;5018746;28;20206;-84
2022/11/24 00:03:34;;;;;;;6.37;1.80;;;4.00;99.90;;;;;;5036965;28;20181;-85
2022/11/24 00:06:10;;;;;;;3.33;1.77;;;4.00;99.90;;;;;;5076503;28;20223;-84
2022/11/24 00:08:38;;;;;;;4.43;1.30;;;4.20;99.90;;;;;;5058501;28;20610;-85
2022/11/24 00:11:12;;;;;;;3.40;1.50;;;4.20;99.90;;;;;;5075417;28;20188;-85
2022/11/24 00:13:38;;;;;;;6.33;1.70;;;4.30;99.90;;;;;;5058203;28;20173;-85
2022/11/24 00:16:08;;;;;;;5.27;1.73;;;4.20;99.90;;;;;;5058513;28;20177;-86
2022/11/24 00:18:34;;;;;;;4.00;1.63;;;4.20;99.90;;;;;;5058204;28;20511;-87
2022/11/24 00:21:00;;;;;;;3.90;1.70;;;4.20;99.90;;;;;;5063993;28;20185;-86
2022/11/24 00:23:26;;;;;;;6.90;1.47;;;4.20;99.90;;;;;;5062121;28;20627;-87
2022/11/24 00:25:51;;;;;;;3.03;1.40;;;4.20;99.90;;;;;;5058490;28;20174;-86
2022/11/24 00:28:17;;;;;;;4.83;1.83;;;4.20;99.90;;;;;;5058467;28;20300;-86
2022/11/24 00:30:43;;;;;;;2.67;1.50;;;4.20;99.90;;;;;;5075703;28;20178;-85
2022/11/24 00:33:09;;;;;;;6.03;2.10;;;4.30;99.90;;;;;;5058048;28;20181;-85
2022/11/24 00:35:34;;;;;;;5.67;1.70;;;4.30;99.90;;;;;;5075558;28;20180;-86
2022/11/24 00:38:00;;;;;;;5.47;1.80;;;4.40;99.90;;;;;;5057568;28;20251;-84
2022/11/24 00:40:26;;;;;;;3.33;1.83;;;4.50;99.90;;;;;;5037926;28;20213;-86
2022/11/24 00:42:51;;;;;;;6.13;1.70;;;4.50;99.90;;;;;;5072364;28;20542;-85
2022/11/24 00:45:17;;;;;;;5.03;1.60;;;4.50;99.90;;;;;;5057983;28;20173;-86
2022/11/24 00:47:43;;;;;;;3.33;1.67;;;4.60;99.90;;;;;;5057731;28;20209;-86
2022/11/24 00:50:09;;;;;;;5.83;1.67;;;4.60;99.90;;;;;;5053967;28;20708;-83
2022/11/24 00:52:34;;;;;;;3.67;1.80;;;4.60;99.90;;;;;;5037779;28;20182;-84
2022/11/24 00:55:00;;;;;;;7.10;1.70;;;4.60;99.90;;;;;;5037478;28;20292;-86
2022/11/24 00:57:26;;;;;;;7.27;2.00;;;4.60;99.90;;;;;;5037482;28;20189;-85
2022/11/24 01:00:10;;;;;;;6.50;2.20;;;4.60;99.90;;;;;;5055350;28;20188;-84
2022/11/24 01:02:35;;;;;;;4.50;1.80;;;4.50;99.90;;;;;;5056822;28;20188;-84
2022/11/24 01:05:02;;;;;;;6.37;2.17;;;4.50;99.90;;;;;;5075049;28;20252;-85
2022/11/24 01:07:27;;;;;;;5.37;1.97;;;4.50;99.90;;;;;;5056365;28;20225;-84
2022/11/24 01:09:53;;;;;;;4.10;1.93;;;4.50;99.90;;;;;;5054598;28;20210;-85
2022/11/24 01:12:19;;;;;;;4.13;2.03;;;4.60;99.90;;;;;;5049534;28;20227;-84
2022/11/24 01:14:44;;;;;;;8.63;2.10;;;4.60;99.90;;;;;;5057398;28;20185;-85
2022/11/24 01:17:10;;;;;;;4.80;2.00;;;4.60;99.90;;;;;;5057226;28;20202;-85
2022/11/24 01:19:36;;;;;;;4.53;1.90;;;4.60;99.90;;;;;;5051646;28;20178;-85
2022/11/24 01:22:01;;;;;;;5.23;2.30;;;4.60;99.90;;;;;;5036284;28;20173;-84
2022/11/24 01:24:27;;;;;;;5.93;1.93;;;4.60;99.90;;;;;;5036820;28;20178;-84
2022/11/24 01:26:53;;;;;;;4.83;2.20;;;4.60;99.90;;;;;;5054720;28;20166;-84
2022/11/24 01:31:48;;;;;;;7.10;2.30;;;4.70;99.90;;;;;;5017555;28;20280;-84
2022/11/24 01:34:14;;;;;;;5.37;1.93;;;4.70;99.90;;;;;;5016086;28;20186;-84
2022/11/24 01:36:39;;;;;;;10.47;2.17;;;4.70;99.90;;;;;;5012618;28;20201;-83
2022/11/24 01:39:05;;;;;;;6.57;2.10;;;4.70;99.90;;;;;;5016807;28;20530;-83
2022/11/24 01:41:33;;;;;;;4.90;2.27;;;4.70;99.90;;;;;;5034307;28;20178;-82
2022/11/24 01:43:59;;;;;;;4.50;2.00;;;4.80;99.90;;;;;;5016489;28;20166;-84
2022/11/24 01:46:36;;;;;;;7.43;2.43;;;4.80;99.90;;;;;;5016398;28;20182;-82
2022/11/24 01:49:13;;;;;;;5.17;2.27;;;4.80;99.90;;;;;;5016314;28;20655;-83
2022/11/24 01:51:44;;;;;;;7.33;2.23;;;4.90;99.90;;;;;;5022127;28;20218;-84
2022/11/24 01:54:11;;;;;;;4.37;2.30;;;4.90;99.90;;;;;;5008246;28;20302;-83
2022/11/24 01:56:41;;;;;;;5.20;2.27;;;4.90;99.90;;;;;;5016469;28;20190;-84
2022/11/24 01:59:09;;;;;;;3.60;2.17;;;4.90;99.90;;;;;;5016499;28;20298;-84
2022/11/24 02:01:34;;;;;;;6.00;2.70;;;4.90;99.90;;;;;;5015791;28;20266;-83
2022/11/24 02:04:04;;;;;;;6.67;2.10;;;4.90;99.90;;;;;;5033657;28;20249;-83
2022/11/24 02:06:32;;;;;;;4.03;2.20;;;4.90;99.90;;;;;;5015959;28;20527;-84
2022/11/24 02:08:59;;;;;;;4.20;2.23;;;4.90;99.90;;;;;;5033567;28;20325;-84
2022/11/24 02:11:29;;;;;;;5.23;2.47;;;4.90;99.90;;;;;;5016146;28;20183;-82
2022/11/24 02:13:56;;;;;;;4.97;2.27;;;4.90;99.90;;;;;;5012509;28;20191;-83
2022/11/24 02:16:22;;;;;;;8.87;2.57;;;4.90;99.90;;;;;;4996539;28;20278;-83
2022/11/24 02:18:48;;;;;;;5.37;2.43;;;5.00;99.90;;;;;;5013943;28;20258;-83
2022/11/24 02:21:15;;;;;;;8.77;2.33;;;5.00;99.90;;;;;;4996233;28;20186;-84
2022/11/24 02:23:53;;;;;;;5.77;2.20;;;5.00;99.90;;;;;;5003736;28;20191;-82
2022/11/24 02:26:33;;;;;;;4.37;2.00;;;5.00;99.90;;;;;;5033953;28;20193;-83
2022/11/24 02:28:59;;;;;;;3.87;1.90;;;5.00;99.90;;;;;;5033125;28;20194;-83
2022/11/24 02:31:25;;;;;;;4.77;2.37;;;5.00;99.90;;;;;;5035473;28;20233;-83
2022/11/24 02:33:50;;;;;;;10.57;2.27;;;5.00;99.90;;;;;;5015706;28;20296;-82
2022/11/24 02:36:16;;;;;;;4.00;1.87;;;4.90;99.90;;;;;;5014923;28;20617;-82
2022/11/24 02:38:42;;;;;;;4.63;1.87;;;4.90;99.90;;;;;;5033358;28;20174;-83
2022/11/24 02:41:12;;;;;;;5.87;2.27;;;5.00;99.90;;;;;;5015525;28;20190;-82
2022/11/24 02:43:45;;;;;;;3.80;2.20;;;5.00;99.90;;;;;;5015658;28;20170;-82
2022/11/24 02:46:11;;;;;;;4.17;2.03;;;4.90;99.90;;;;;;5015801;28;20183;-82
2022/11/24 02:48:37;;;;;;;10.60;2.80;;;4.90;99.90;;;;;;5015142;28;20276;-83
2022/11/24 02:51:04;;;;;;;6.20;2.30;;;4.90;99.90;;;;;;5032396;28;20174;-82
2022/11/24 02:53:29;;;;;;;6.47;2.00;;;5.00;99.90;;;;;;5014415;28;20202;-83
2022/11/24 02:55:55;;;;;;;4.90;1.77;;;5.00;99.90;;;;;;5015973;28;20178;-81
2022/11/24 02:58:21;;;;;;;3.90;1.93;;;5.00;99.90;;;;;;5015081;28;20243;-83
2022/11/24 03:00:47;;;;;;;5.17;1.80;;;5.00;99.90;;;;;;5015730;28;20510;-83
2022/11/24 03:03:13;;;;;;;4.83;1.83;;;5.00;99.90;;;;;;5015218;28;20243;-83
2022/11/24 03:05:39;;;;;;;5.50;2.20;;;4.90;99.90;;;;;;5015630;28;20175;-85
2022/11/24 03:08:04;;;;;;;5.27;2.30;;;4.90;99.90;;;;;;5032686;28;20210;-83
2022/11/24 03:10:30;;;;;;;5.83;2.20;;;4.90;99.90;;;;;;5015838;28;20498;-84
2022/11/24 03:12:56;;;;;;;5.50;2.10;;;5.00;99.90;;;;;;5033355;28;20613;-84
2022/11/24 03:15:22;;;;;;;3.87;2.00;;;5.00;99.90;;;;;;5015582;28;20597;-83
2022/11/24 03:17:49;;;;;;;11.23;2.57;;;5.10;99.90;;;;;;5015350;28;20179;-84
2022/11/24 03:20:16;;;;;;;5.60;2.60;;;5.10;99.90;;;;;;5033233;28;20519;-84
2022/11/24 03:22:41;;;;;;;3.47;2.03;;;5.20;99.90;;;;;;5015533;28;20178;-82
2022/11/24 03:25:07;;;;;;;8.27;2.50;;;5.20;99.90;;;;;;4996187;28;20555;-84
2022/11/24 03:27:33;;;;;;;8.20;2.23;;;5.30;99.90;;;;;;4995429;28;20544;-83
2022/11/24 03:29:59;;;;;;;4.97;2.47;;;5.30;99.90;;;;;;5000736;28;20569;-83
2022/11/24 03:32:24;;;;;;;7.03;2.20;;;5.30;99.90;;;;;;5035170;28;20174;-83
2022/11/24 03:34:50;;;;;;;8.87;2.27;;;5.30;99.90;;;;;;5034833;28;20178;-83
2022/11/24 03:37:16;;;;;;;3.87;2.00;;;5.30;99.90;;;;;;5045894;28;20220;-83
2022/11/24 03:39:41;;;;;;;5.50;2.10;;;5.30;99.90;;;;;;5072698;28;20181;-84
2022/11/24 03:42:07;;;;;;;4.97;2.40;;;5.30;99.90;;;;;;5055038;28;20561;-83
2022/11/24 03:44:33;;;;;;;6.07;2.20;;;5.40;99.90;;;;;;5056134;28;20177;-83
2022/11/24 03:46:58;;;;;;;3.00;1.77;;;5.40;99.90;;;;;;5076512;28;20612;-84
2022/11/24 03:49:24;;;;;;;4.80;2.00;;;5.40;99.90;;;;;;5058060;28;20655;-83
2022/11/24 03:51:50;;;;;;;5.40;2.03;;;5.40;99.90;;;;;;5057976;28;20193;-83
2022/11/24 03:54:15;;;;;;;4.70;2.20;;;5.40;99.90;;;;;;5058792;28;20267;-85
2022/11/24 03:56:41;;;;;;;4.93;2.20;;;5.30;99.90;;;;;;5059022;28;20177;-84
2022/11/24 03:59:07;;;;;;;4.83;2.13;;;5.40;99.90;;;;;;5058083;28;20177;-85
2022/11/24 04:01:33;;;;;;;3.27;1.97;;;5.40;99.90;;;;;;5058126;28;20181;-84
2022/11/24 04:03:59;;;;;;;5.97;2.00;;;5.40;99.90;;;;;;5044856;28;20222;-84
2022/11/24 04:06:24;;;;;;;9.33;2.00;;;5.40;99.90;;;;;;5038399;28;20259;-83
2022/11/24 04:08:50;;;;;;;5.20;2.77;;;5.40;99.90;;;;;;5067355;28;20209;-84
2022/11/24 04:14:00;;;;;;;6.03;2.23;;;5.50;99.90;;;;;;5076205;28;20545;-84
2022/11/24 04:16:26;;;;;;;5.00;2.20;;;5.50;99.90;;;;;;5058227;28;20177;-82
2022/11/24 04:18:53;;;;;;;8.90;2.33;;;5.50;99.90;;;;;;5058228;28;20188;-84
2022/11/24 04:21:20;;;;;;;4.57;1.80;;;5.50;99.90;;;;;;5076200;28;20177;-86
2022/11/24 04:23:46;;;;;;;5.70;2.13;;;5.50;99.90;;;;;;5057426;28;20612;-85
2022/11/24 04:26:12;;;;;;;8.03;2.20;;;5.50;99.90;;;;;;5058134;28;20526;-85
2022/11/24 04:28:38;;;;;;;6.67;1.93;;;5.50;99.90;;;;;;5057701;28;20287;-86
2022/11/24 04:31:04;;;;;;;6.93;2.40;;;5.50;99.90;;;;;;5058086;28;20221;-86
2022/11/24 04:33:30;;;;;;;9.10;2.27;;;5.50;99.90;;;;;;5057125;28;20192;-85
2022/11/24 04:35:56;;;;;;;5.07;2.17;;;5.60;99.90;;;;;;5057828;28;20173;-85
2022/11/24 04:38:22;;;;;;;7.63;2.20;;;5.60;99.90;;;;;;5057468;28;20177;-86
2022/11/24 04:40:47;;;;;;;6.53;2.40;;;5.60;99.90;;;;;;5058148;28;20192;-85
2022/11/24 04:43:15;;;;;;;6.67;2.20;;;5.70;99.90;;;;;;5057253;28;20177;-85
2022/11/24 04:45:40;;;;;;;5.47;2.10;;;5.70;99.90;;;;;;5075847;28;20165;-86
2022/11/24 04:48:06;;;;;;;4.27;1.97;;;5.70;99.90;;;;;;5074994;28;20215;-86
2022/11/24 04:50:32;;;;;;;12.77;2.80;;;5.60;99.90;;;;;;5057046;28;20188;-85
2022/11/24 04:52:57;;;;;;;9.77;2.50;;;5.60;99.90;;;;;;5075058;28;20181;-84
2022/11/24 04:55:23;;;;;;;3.53;2.07;;;5.60;99.90;;;;;;5057185;28;20514;-86
2022/11/24 04:57:49;;;;;;;6.07;2.13;;;5.60;99.90;;;;;;5056696;28;20183;-85
2022/11/24 05:00:15;;;;;;;5.30;1.97;;;5.60;99.90;;;;;;5075065;28;20235;-84
2022/11/24 05:02:40;;;;;;;9.40;2.30;;;5.60;99.90;;;;;;5075265;28;20173;-84
2022/11/24 05:05:07;;;;;;;7.20;2.63;;;5.60;99.90;;;;;;5074123;28;20204;-85
2022/11/24 05:07:33;;;;;;;8.70;2.40;;;5.70;99.90;;;;;;5054610;28;20193;-85
2022/11/24 05:12:43;;;;;;;6.67;2.60;;;5.70;99.90;;;;;;5074225;28;20654;-86
2022/11/24 05:15:09;;;;;;;6.80;2.30;;;5.70;99.90;;;;;;5057269;28;20177;-85
2022/11/24 05:17:37;;;;;;;5.40;2.50;;;5.70;99.90;;;;;;5074922;28;20501;-86
2022/11/24 05:20:04;;;;;;;6.07;2.33;;;5.80;99.90;;;;;;5056500;28;20251;-83
2022/11/24 05:22:30;;;;;;;13.57;3.10;;;5.90;99.90;;;;;;5057176;28;20264;-85
2022/11/24 05:24:56;;;;;;;5.73;2.43;;;5.90;99.90;;;;;;5056370;28;20284;-85
2022/11/24 05:27:22;;;;;;;8.67;2.73;;;5.90;99.90;;;;;;5056769;28;20184;-85
2022/11/24 05:29:48;;;;;;;11.97;2.57;;;6.00;99.90;;;;;;5056773;28;20264;-86
2022/11/24 05:32:13;;;;;;;8.33;2.53;;;6.00;99.90;;;;;;5057083;28;20180;-84
2022/11/24 05:34:39;;;;;;;10.00;2.43;;;6.00;99.90;;;;;;5074254;28;20198;-85
2022/11/24 05:37:05;;;;;;;12.07;3.07;;;6.00;99.90;;;;;;5056118;28;20238;-85
2022/11/24 05:39:32;;;;;;;9.03;2.93;;;6.00;99.90;;;;;;5074670;28;20319;-87
2022/11/24 05:41:58;;;;;;;11.57;2.60;;;6.00;99.90;;;;;;5074661;28;20172;-85
2022/11/24 05:44:24;;;;;;;7.90;2.53;;;6.00;99.90;;;;;;5056270;28;20530;-86
2022/11/24 05:46:49;;;;;;;7.63;2.13;;;6.00;99.90;;;;;;5056695;28;20177;-84
2022/11/24 05:49:15;;;;;;;8.57;2.40;;;6.10;99.90;;;;;;5055971;28;20299;-83
2022/11/24 05:51:41;;;;;;;8.20;2.60;;;6.10;99.90;;;;;;5055325;28;20195;-85
2022/11/24 05:54:07;;;;;;;9.87;2.90;;;6.00;99.90;;;;;;5073725;28;20181;-85
2022/11/24 05:56:32;;;;;;;7.60;2.83;;;6.00;99.90;;;;;;5056583;28;20205;-85
2022/11/24 05:58:58;;;;;;;8.80;2.37;;;6.10;99.90;;;;;;5055931;28;20238;-84
2022/11/24 06:01:24;;;;;;;10.37;2.70;;;6.20;99.90;;;;;;5055560;28;20185;-85
2022/11/24 06:03:50;;;;;;;6.37;2.23;;;6.20;99.90;;;;;;5073771;28;20174;-84
2022/11/24 06:06:16;;;;;;;8.43;2.70;;;6.20;99.90;;;;;;5073317;28;20188;-83
2022/11/24 06:08:42;;;;;;;9.10;2.70;;;6.30;99.90;;;;;;5055552;28;20213;-84
2022/11/24 06:11:17;;;;;;;7.07;2.20;;;6.30;99.90;;;;;;5056311;28;20181;-83
2022/11/24 06:13:44;;;;;;;10.17;3.10;;;6.30;99.90;;;;;;5056134;28;20169;-85
2022/11/24 06:16:10;;;;;;;5.87;2.10;;;6.20;99.90;;;;;;5073864;28;20172;-85
2022/11/24 06:18:36;;;;;;;7.60;2.50;;;6.20;99.90;;;;;;5055419;28;20215;-84
2022/11/24 06:21:03;;;;;;;9.83;3.00;;;6.20;99.90;;;;;;5055561;28;20181;-85
2022/11/24 06:23:28;;;;;;;12.07;2.93;;;6.10;99.90;;;;;;5073334;28;20225;-84
2022/11/24 06:25:57;;;;;;;7.33;2.50;;;6.10;99.90;;;;;;5072328;28;20188;-84
2022/11/24 06:28:23;;;;;;;4.33;2.20;;;6.00;99.90;;;;;;5054401;28;20227;-84
2022/11/24 06:30:49;;;;;;;7.63;2.40;;;6.10;99.90;;;;;;5051613;28;20758;-84
2022/11/24 06:33:14;;;;;;;10.60;2.63;;;6.00;99.90;;;;;;5035743;28;20209;-83
2022/11/24 06:35:40;;;;;;;7.20;1.97;;;6.00;99.90;;;;;;5035580;28;20181;-85
2022/11/24 06:38:07;;;;;;;5.53;2.67;;;6.00;99.90;;;;;;5022953;28;20538;-86
2022/11/24 06:40:33;;;;;;;12.77;2.97;;;6.00;99.90;;;;;;5053556;28;20257;-86
2022/11/24 06:42:58;;;;;;;9.10;2.83;;;6.00;99.90;;;;;;5036127;28;20182;-85
2022/11/24 06:45:24;;;;;;;6.53;2.50;;;6.00;99.90;;;;;;5053589;28;20174;-85
2022/11/24 06:47:53;;;;;;;5.93;2.30;;;6.00;99.90;;;;;;5053314;28;20540;-85
2022/11/24 06:50:19;;;;;;;7.67;2.60;;;6.00;99.90;;;;;;5034942;28;20205;-84
2022/11/24 06:52:45;;;;;;;10.27;2.60;;;6.00;99.90;;;;;;5052287;28;20225;-85
2022/11/24 06:55:10;;;;;;;11.10;3.40;;;5.90;99.90;;;;;;5033492;28;20206;-86
2022/11/24 06:57:36;;;;;;;10.33;2.90;;;5.90;99.90;;;;;;5052141;28;20257;-85
2022/11/24 07:00:04;;;;;;;6.10;2.77;;;5.90;99.90;;;;;;5035249;28;20518;-84
2022/11/24 07:02:30;;;;;;;6.67;2.67;;;5.90;99.90;;;;;;5053281;28;20204;-84
2022/11/24 07:04:56;;;;;;;7.90;2.50;;;6.00;99.90;;;;;;5035236;28;20273;-84
2022/11/24 07:07:21;;;;;;;9.53;2.87;;;6.00;99.90;;;;;;5035129;28;20502;-84
2022/11/24 07:09:47;;;;;;;7.70;2.67;;;6.00;99.90;;;;;;5035408;28;20178;-84
2022/11/24 07:12:13;;;;;;;9.00;2.47;;;6.00;99.90;;;;;;5035427;28;20181;-84
2022/11/24 07:14:38;;;;;;;11.17;2.97;;;5.90;99.90;;;;;;5035285;28;20185;-84
2022/11/24 07:17:04;;;;;;;8.30;3.20;;;5.90;99.90;;;;;;5035367;28;20182;-84
2022/11/24 07:19:30;;;;;;;13.43;3.30;;;6.00;99.90;;;;;;5054023;28;20174;-85
2022/11/24 07:21:56;;;;;;;10.80;2.83;;;5.90;99.90;;;;;;5056953;28;20620;-85
2022/11/24 07:24:22;;;;;;;12.03;3.27;;;6.00;99.90;;;;;;5038484;28;20196;-87
2022/11/24 07:26:47;;;;;;;8.47;2.77;;;6.00;99.90;;;;;;5057157;28;20619;-85
2022/11/24 07:29:13;;;;;;;11.67;3.07;;;6.00;99.90;;;;;;5038624;28;20237;-85
2022/11/24 07:31:39;;;;;;;10.97;3.30;;;6.00;99.90;;;;;;5057115;28;20671;-86
2022/11/24 07:34:05;;;;;;;8.63;3.10;;;6.10;99.90;;;;;;5056983;28;20190;-85
2022/11/24 07:36:30;;;;;;;11.63;2.80;;;6.10;99.90;;;;;;5038242;28;20209;-85
2022/11/24 07:38:56;;;;;;;8.93;2.67;;;6.10;99.90;;;;;;5037089;28;20189;-85
2022/11/24 07:41:22;;;;;;;6.73;2.73;;;6.10;99.90;;;;;;5037505;28;20185;-85
2022/11/24 07:43:49;;;;;;;7.77;2.60;;;6.20;99.90;;;;;;5038152;28;20276;-84
2022/11/24 07:46:17;;;;;;;7.90;3.00;;;6.20;99.90;;;;;;5056394;28;20197;-85
2022/11/24 07:48:44;;;;;;;9.00;2.90;;;6.20;99.90;;;;;;5038246;28;20259;-85
2022/11/24 07:51:10;;;;;;;14.83;3.20;;;6.30;99.90;;;;;;5056425;28;20213;-84
2022/11/24 07:53:37;;;;;;;9.80;3.00;;;6.30;99.90;;;;;;5035656;28;20217;-83
2022/11/24 07:56:05;;;;;;;8.73;3.10;;;6.40;99.90;;;;;;5018516;28;20170;-84
2022/11/24 07:58:33;;;;;;;7.77;3.03;;;6.40;99.90;;;;;;5018283;28;20170;-83
2022/11/24 08:00:59;;;;;;;9.20;2.63;;;6.50;99.90;;;;;;5035088;28;20517;-83
2022/11/24 08:03:25;;;;;;;11.67;3.10;;;6.50;99.90;;;;;;5017907;28;20631;-84
2022/11/24 08:05:58;;;;;;;9.60;2.33;;;6.60;99.90;;;;;;5018610;28;20232;-83
2022/11/24 08:08:25;;;;;;;12.73;3.00;;;6.60;99.90;;;;;;5018554;28;21042;-83
2022/11/24 08:10:51;;;;;;;9.47;2.50;;;6.70;99.90;;;;;;5034860;28;20185;-83
2022/11/24 08:13:17;;;;;;;7.03;2.13;;;6.80;99.90;;;;;;5048201;28;20182;-84
2022/11/24 08:15:43;;;;;;;6.63;2.63;;;6.90;99.90;;;;;;5018284;28;20194;-83
2022/11/24 08:18:08;;;;;;;6.90;2.40;;;6.90;99.90;;;;;;5018378;28;20616;-82
2022/11/24 08:20:34;;;;;;;9.40;2.83;;;6.90;99.90;;;;;;5036465;28;20179;-83
2022/11/24 08:23:00;;;;;;;11.73;2.87;;;6.90;99.90;;;;;;5035850;28;20621;-83
2022/11/24 08:25:31;;;;;;;12.33;3.10;;;6.90;99.90;;;;;;5018121;28;20182;-83
2022/11/24 08:28:00;;;;;;;10.60;3.20;;;6.90;99.90;;;;;;5035939;28;20194;-85
2022/11/24 08:30:27;;;;;;;10.93;2.60;;;6.90;99.90;;;;;;5017939;28;20330;-83
2022/11/24 08:32:53;;;;;;;11.00;3.00;;;6.90;99.90;;;;;;5035949;28;20265;-84
2022/11/24 08:35:19;;;;;;;11.70;3.00;;;6.80;99.90;;;;;;5018400;28;20265;-84
2022/11/24 08:37:44;;;;;;;15.23;3.20;;;6.80;99.90;;;;;;5050692;28;20182;-84
2022/11/24 08:40:11;;;;;;;12.50;3.10;;;6.80;99.90;;;;;;5037556;28;20180;-84
2022/11/24 08:42:37;;;;;;;11.77;3.13;;;6.80;99.90;;;;;;5036888;28;20178;-86
2022/11/24 08:45:03;;;;;;;12.67;3.17;;;6.80;99.90;;;;;;5055644;28;20166;-84
2022/11/24 08:47:29;;;;;;;7.60;2.80;;;7.00;99.90;;;;;;5055917;28;20170;-84
2022/11/24 08:49:55;;;;;;;15.70;2.90;;;7.00;99.90;;;;;;5037594;28;20256;-84
2022/11/24 08:52:20;;;;;;;16.80;3.57;;;7.10;99.90;;;;;;5055080;28;20174;-84
2022/11/24 08:54:46;;;;;;;11.67;2.80;;;7.00;99.90;;;;;;5055149;28;20261;-84
2022/11/24 08:57:15;;;;;;;15.43;3.13;;;7.10;99.90;;;;;;5055356;28;20160;-84
2022/11/24 08:59:41;;;;;;;11.27;2.80;;;7.00;99.90;;;;;;5025437;28;20194;-84
2022/11/24 09:02:10;;;;;;;13.63;2.90;;;7.10;99.90;;;;;;5018599;28;20186;-85
2022/11/24 09:04:37;;;;;;;8.93;3.10;;;7.10;99.90;;;;;;5055199;28;20176;-85
2022/11/24 09:07:02;;;;;;;6.83;2.37;;;7.10;99.90;;;;;;5037095;28;20181;-86
2022/11/24 09:09:28;;;;;;;16.40;2.73;;;7.20;99.90;;;;;;5054812;28;20679;-84
2022/11/24 09:11:54;;;;;;;9.73;2.93;;;7.20;99.90;;;;;;5032998;28;20182;-85
2022/11/24 09:14:19;;;;;;;15.47;3.10;;;7.20;99.90;;;;;;5031906;28;20186;-85
2022/11/24 09:16:45;;;;;;;7.43;2.43;;;7.20;99.90;;;;;;5037045;28;20212;-84
2022/11/24 09:19:11;;;;;;;17.27;2.60;;;7.20;99.90;;;;;;5037135;28;20221;-85
2022/11/24 09:21:37;;;;;;;8.10;2.77;;;7.10;99.90;;;;;;5037416;28;20631;-86
2022/11/24 09:24:07;;;;;;;11.40;2.83;;;7.20;99.90;;;;;;5054722;28;20612;-86
2022/11/24 09:26:35;;;;;;;11.27;2.77;;;7.20;99.90;;;;;;5037130;28;20174;-86
2022/11/24 09:29:03;;;;;;;12.67;2.83;;;7.30;99.90;;;;;;5037230;28;20213;-87
2022/11/24 09:31:33;;;;;;;13.30;3.07;;;7.30;99.90;;;;;;5054384;28;20533;-85
2022/11/24 09:33:59;;;;;;;12.87;2.60;;;7.40;99.90;;;;;;5036923;28;20201;-86
2022/11/24 09:36:25;;;;;;;10.43;2.60;;;7.40;99.90;;;;;;5036420;28;20621;-86
2022/11/24 09:38:51;;;;;;;12.27;2.93;;;7.50;99.90;;;;;;5036003;28;20192;-85
2022/11/24 09:41:16;;;;;;;9.27;2.63;;;7.50;99.90;;;;;;5015892;28;20258;-86
2022/11/24 09:44:23;;;;;;;11.90;2.73;;;7.60;99.90;;;;;;5033953;28;20197;-85
2022/11/24 09:47:07;;;;;;;8.97;2.37;;;7.60;99.90;;;;;;5017014;28;20173;-87
2022/11/24 09:50:02;;;;;;;10.77;2.57;;;7.60;99.90;;;;;;5033460;28;20653;-85
2022/11/24 09:52:37;;;;;;;22.30;2.67;;;7.60;99.90;;;;;;5031398;28;20298;-86
2022/11/24 09:55:11;;;;;;;13.03;2.60;;;7.60;99.90;;;;;;5034548;28;20204;-85
2022/11/24 09:57:40;;;;;;;9.00;2.30;;;7.60;99.90;;;;;;5036324;28;20172;-85
2022/11/24 10:00:11;;;;;;;16.20;2.97;;;7.60;99.90;;;;;;5035341;28;20189;-85
2022/11/24 10:02:37;;;;;;;12.80;2.13;;;7.70;99.90;;;;;;5035338;28;20185;-87
2022/11/24 10:05:05;;;;;;;5.90;2.07;;;7.70;99.90;;;;;;5054145;28;20182;-85
2022/11/24 10:07:47;;;;;;;6.70;2.53;;;7.80;99.90;;;;;;5036046;28;20176;-85
2022/11/24 10:10:20;;;;;;;16.03;2.40;;;7.90;99.90;;;;;;5035967;28;20185;-86
2022/11/24 10:13:12;;;;;;;8.50;1.83;;;8.00;99.90;;;;;;5054364;28;20188;-86
2022/11/24 10:16:16;;;;;;;10.00;3.00;;;8.10;99.90;;;;;;5054131;28;20178;-85
2022/11/24 10:18:42;;;;;;;11.93;2.50;;;8.10;99.90;;;;;;5019519;28;20189;-85
2022/11/24 10:21:37;;;;;;;10.30;2.17;;;8.10;99.90;;;;;;5033684;28;20509;-85
2022/11/24 10:24:15;;;;;;;10.73;2.20;;;8.20;99.90;;;;;;5044678;28;20182;-86
2022/11/24 10:26:50;;;;;;;9.40;2.30;;;8.20;99.90;;;;;;5035819;28;20258;-84
2022/11/24 10:29:21;;;;;;;9.23;2.30;;;8.40;99.90;;;;;;5053710;28;20197;-85
2022/11/24 10:31:52;;;;;;;8.03;2.30;;;8.40;99.90;;;;;;5053253;28;20745;-85
2022/11/24 10:34:38;;;;;;;10.13;2.60;;;8.50;99.90;;;;;;5053376;28;20631;-85
2022/11/24 10:37:09;;;;;;;8.87;2.37;;;8.50;99.90;;;;;;5053617;28;20162;-85
2022/11/24 10:39:45;;;;;;;11.43;2.50;;;8.60;99.90;;;;;;5029271;28;20190;-86
2022/11/24 10:42:25;;;;;;;8.67;2.10;;;8.60;99.90;;;;;;5016165;28;20170;-87
2022/11/24 10:45:11;;;;;;;11.77;2.60;;;8.70;99.90;;;;;;5033630;28;20158;-88
2022/11/24 10:47:37;;;;;;;9.93;2.00;;;8.80;99.90;;;;;;5033848;28;20190;-87
2022/11/24 10:50:23;;;;;;;9.83;2.10;;;8.70;99.90;;;;;;5015962;28;20197;-86
2022/11/24 10:53:05;;;;;;;9.60;1.67;;;8.90;99.90;;;;;;5016479;28;20174;-84
2022/11/24 10:55:53;;;;;;;9.17;2.00;;;8.90;99.90;;;;;;5056123;28;20533;-88
2022/11/24 10:58:28;;;;;;;10.97;2.57;;;9.10;99.90;;;;;;5039824;28;20178;-85
2022/11/24 11:00:55;;;;;;;9.53;1.90;;;9.10;99.90;;;;;;5057644;28;20180;-86
2022/11/24 11:03:27;;;;;;;13.13;2.50;;;9.10;99.90;;;;;;5057451;28;20201;-85
2022/11/24 11:06:07;;;;;;;5.13;1.70;;;9.00;99.90;;;;;;5057525;28;20174;-86
2022/11/24 11:08:33;;;;;;;7.00;1.50;;;9.10;99.90;;;;;;5038575;28;20272;-85
2022/11/24 11:11:12;;;;;;;13.90;2.10;;;9.10;99.90;;;;;;5054684;28;20289;-84
2022/11/24 11:13:56;;;;;;;13.03;1.90;;;9.00;99.90;;;;;;5039904;28;20173;-86
2022/11/24 11:16:26;;;;;;;12.00;2.22;;;9.10;99.90;;;;;;5039505;28;20173;-86
2022/11/24 11:18:52;;;;;;;11.07;1.83;;;9.10;99.90;;;;;;5038675;28;20190;-85
2022/11/24 11:21:33;;;;;;;15.38;2.50;;;9.10;99.90;;;;;;5039579;28;20197;-86
2022/11/24 11:24:00;;;;;;;9.23;1.97;;;9.10;99.90;;;;;;5057379;28;20193;-86
2022/11/24 11:26:26;;;;;;;10.33;2.10;;;9.10;99.90;;;;;;5038991;28;20516;-86
2022/11/24 11:29:07;;;;;;;8.75;1.73;;;9.20;99.90;;;;;;5057191;28;20206;-85
2022/11/24 11:31:34;;;;;;;7.37;2.40;;;9.40;99.90;;;;;;5023787;28;20230;-86
2022/11/24 11:34:09;;;;;;;10.30;2.00;;;9.50;99.90;;;;;;5037116;28;20221;-85
2022/11/24 11:36:40;;;;;;;9.73;2.10;;;9.50;99.90;;;;;;5037137;28;20189;-85
2022/11/24 11:39:14;;;;;;;13.55;2.15;;;9.60;99.90;;;;;;5039088;28;20677;-86
2022/11/24 11:41:45;;;;;;;8.38;2.20;;;9.50;99.90;;;;;;5039381;28;20668;-84
2022/11/24 11:44:24;;;;;;;14.57;2.53;;;9.40;99.90;;;;;;5057007;28;20202;-87
2022/11/24 11:46:50;;;;;;;10.82;2.45;;;9.40;99.90;;;;;;5056982;28;20162;-85
2022/11/24 11:49:16;;;;;;;11.40;1.90;;;9.30;99.90;;;;;;5038922;28;20652;-86
2022/11/24 11:52:07;;;;;;;10.10;1.92;;;9.30;99.90;;;;;;5039027;28;20212;-87
2022/11/24 11:54:35;;;;;;;7.03;1.90;;;9.30;99.90;;;;;;5036642;28;20171;-86
2022/11/24 11:57:04;;;;;;;7.87;1.50;;;9.40;99.90;;;;;;5036869;28;20621;-84
2022/11/24 11:59:47;;;;;;;11.68;2.33;;;9.30;99.90;;;;;;5036810;28;20181;-85
2022/11/24 12:02:40;;;;;;;8.65;1.90;;;9.40;99.90;;;;;;5036332;28;20273;-85
2022/11/24 12:05:19;;;;;;;10.32;2.22;;;9.40;99.90;;;;;;5035806;28;20209;-88
2022/11/24 12:08:09;;;;;;;11.88;2.25;;;9.40;99.90;;;;;;5035661;28;20175;-86
2022/11/24 12:10:52;;;;;;;6.88;1.90;;;9.40;99.90;;;;;;5032560;28;20573;-86
2022/11/24 12:13:21;;;;;;;10.35;2.13;;;9.40;99.90;;;;;;5038530;28;20174;-85
2022/11/24 12:15:53;;;;;;;11.00;2.30;;;9.50;99.90;;;;;;5056595;28;20173;-85
2022/11/24 12:18:57;;;;;;;10.85;2.30;;;9.60;99.90;;;;;;5038629;28;20568;-85
2022/11/24 12:21:52;;;;;;;8.63;1.83;;;9.70;99.90;;;;;;5056193;28;20531;-84
2022/11/24 12:24:54;;;;;;;6.78;2.08;;;9.80;99.90;;;;;;5018753;28;20182;-86
2022/11/24 12:27:34;;;;;;;9.27;2.17;;;10.00;99.90;;;;;;5018562;28;20174;-85
2022/11/24 12:30:11;;;;;;;11.88;2.03;;;10.00;99.90;;;;;;5018381;28;20273;-84
2022/11/24 12:32:59;;;;;;;11.07;2.35;;;9.90;99.90;;;;;;5036380;28;20177;-87
2022/11/24 12:35:32;;;;;;;9.52;2.03;;;9.90;99.90;;;;;;5036371;28;20163;-84
2022/11/24 12:38:31;;;;;;;9.63;1.98;;;9.90;99.90;;;;;;5039518;28;20174;-85
2022/11/24 12:41:02;;;;;;;8.20;1.88;;;9.90;99.90;;;;;;5053038;28;20177;-87
2022/11/24 12:43:36;;;;;;;15.55;2.47;;;9.90;99.90;;;;;;5056050;28;20189;-86
2022/11/24 12:46:40;;;;;;;8.93;1.95;;;10.00;99.90;;;;;;5056284;28;20681;-87
2022/11/24 12:49:38;;;;;;;7.65;1.92;;;10.00;99.90;;;;;;5055855;28;20271;-86
2022/11/24 12:52:43;;;;;;;7.50;1.75;;;9.90;99.90;;;;;;5034945;28;20170;-87
2022/11/24 12:55:18;;;;;;;11.18;1.77;;;9.90;99.90;;;;;;4988296;28;20602;-85
2022/11/24 12:57:48;;;;;;;8.60;2.38;;;9.80;99.90;;;;;;5018133;28;20167;-87
2022/11/24 13:00:18;;;;;;;9.35;2.22;;;9.80;99.90;;;;;;5018567;28;20185;-88
2022/11/24 13:03:08;;;;;;;8.35;2.05;;;9.70;99.90;;;;;;5035529;28;20209;-86
2022/11/24 13:05:59;;;;;;;11.25;2.50;;;9.60;99.90;;;;;;5018105;28;20513;-87
2022/11/24 13:08:27;;;;;;;10.88;2.00;;;9.40;99.90;;;;;;5018335;28;20203;-86
2022/11/24 13:10:53;;;;;;;6.57;1.83;;;9.30;99.90;;;;;;5034084;28;20185;-86
2022/11/24 13:13:21;;;;;;;15.07;2.28;;;9.20;99.90;;;;;;5037102;28;20182;-87